Latest Coastal Weather Observations for Wynyard

IDV60701

Issued at 3:12 pm EST Saturday 24 August 2019 (issued every 10 minutes, with the page automatically refreshed every 10 minutes)

About coastal observations | Map of coastal stations | Coastal observations for VIC | Marine services | Other Formats
Station Details ID: 091107 Name: WYNYARD AIRPORT Lat: -41.00 Lon: 145.73 Height: 12.0 m
Data from the previous 72 hours. | See also: Recent months at Wynyard
Date/Time
EST
Wind Sea
Height
m
Swell Vis
km
Cloud Weather Temp
°C
Press
hPa
Rain since
9am
mm
Dir  Spd
kts
Gust
kts
Height
m
Period
s
Dir
24/03:00pm NW 11 15 - - - - 10 Cloudy - 12.5 1005.1 0.0
24/02:30pm NW 9 13 - - - - 10 Partly cloudy - 12.5 1005.6 0.0
24/02:00pm WNW 9 13 - - - - 10 Partly cloudy - 12.4 1005.7 0.0
24/01:30pm NW 13 17 - - - - 10 Partly cloudy - 12.6 1006.5 0.0
24/01:00pm NW 12 16 - - - - 10 Partly cloudy - 12.9 1006.8 0.0
24/12:30pm WNW 14 18 - - - - 10 Partly cloudy - 12.9 1007.6 0.0
24/12:00pm NW 13 20 - - - - 10 Cloudy - 13.0 1008.1 0.0
24/11:30am NW 13 19 - - - - 10 Partly cloudy - 12.8 1008.5 0.0
24/11:00am NW 13 17 - - - - 10 Partly cloudy - 12.9 1008.9 0.0
24/10:30am NW 15 22 - - - - 10 - - 12.8 1009.4 0.0
24/10:00am NW 16 22 - - - - 10 Partly cloudy - 13.1 1009.6 0.0
24/09:30am NW 13 19 - - - - 10 - - 13.1 1010.0 0.0
24/09:00am NW 14 19 - - - - 10 Partly cloudy - 12.8 1010.1 0.8
24/08:30am NW 10 14 - - - - 10 - - 12.2 1010.5 0.8
24/08:00am WNW 8 12 - - - - 10 - - 11.4 1010.8 0.8
24/07:38am WNW 8 11 - - - - 10 Partly cloudy - 10.8 1010.9 0.8
24/07:30am WNW 7 9 - - - - 10 Partly cloudy - 10.9 1010.9 0.8
24/07:00am WNW 5 9 - - - - 10 Cloudy - 10.4 1011.0 0.8
24/06:30am WNW 3 5 - - - - 10 Cloudy - 9.3 1010.8 0.8
24/06:04am WNW 5 6 - - - - 10 Partly cloudy - 8.4 1010.8 0.8
24/06:00am WNW 6 7 - - - - 10 Partly cloudy - 8.4 1010.9 0.8
24/05:30am WNW 7 8 - - - - 10 - - 8.6 1011.1 0.8
24/05:00am WNW 9 11 - - - - 10 Partly cloudy - 9.9 1011.3 0.8
24/04:30am WNW 7 9 - - - - 10 Partly cloudy - 10.2 1011.2 0.8
24/04:00am W 9 11 - - - - 10 Partly cloudy - 10.4 1011.5 0.8
24/03:46am W 8 11 - - - - 10 Partly cloudy - 10.3 1011.6 0.8
24/03:30am WNW 9 11 - - - - 10 Partly cloudy - 10.4 1011.7 0.8
24/03:00am WNW 4 5 - - - - 7 Cloudy Rain 9.9 1012.0 0.8
24/02:57am NW 4 5 - - - - 8 Partly cloudy - 10.0 1012.1 0.6
24/02:30am NNW 4 5 - - - - 8 Partly cloudy - 9.7 1012.7 0.6
24/02:00am W 5 6 - - - - 10 Cloudy - 9.5 1013.3 0.6
24/01:30am W 6 7 - - - - 10 Partly cloudy - 9.4 1013.6 0.6
24/01:00am WSW 4 5 - - - - 10 Cloudy - 9.2 1013.7 0.6
24/12:30am W 4 5 - - - - 10 Partly cloudy - 9.2 1014.2 0.6
24/12:22am WNW 4 5 - - - - 10 Partly cloudy - 9.3 1014.4 0.6
24/12:05am WNW 5 7 - - - - 10 Partly cloudy - 9.5 1014.6 0.6
24/12:00am W 5 8 - - - - 10 Cloudy - 9.6 1014.7 0.6
 
Date/Time
EST
Wind Sea
Height
m
Swell Vis
km
Cloud Weather Temp
°C
Press
hPa
Rain since
9am
mm
Dir  Spd
kts
Gust
kts
Height
m
Period
s
Dir
23/11:30pm NW 6 7 - - - - 10 Partly cloudy - 9.9 1015.0 0.6
23/11:00pm WNW 7 10 - - - - 10 Partly cloudy - 10.1 1015.2 0.6
23/10:30pm W 10 15 - - - - 10 Cloudy - 10.1 1015.3 0.6
23/10:00pm W 8 11 - - - - 10 Cloudy - 9.7 1015.6 0.6
23/09:30pm WNW 12 16 - - - - 10 Partly cloudy - 9.5 1015.9 0.6
23/09:03pm WNW 13 17 - - - - 10 Partly cloudy - 9.6 1016.0 0.6
23/09:00pm WNW 13 16 - - - - 10 Cloudy - 9.6 1016.0 0.6
23/08:36pm WNW 13 17 - - - - 10 Partly cloudy - 9.5 1016.2 0.6
23/08:30pm WNW 13 17 - - - - 10 Partly cloudy - 9.6 1016.2 0.6
23/08:29pm WNW 13 17 - - - - 10 Partly cloudy - 9.6 1016.2 0.6
23/08:18pm WNW 13 18 - - - - 5 Partly cloudy - 9.6 1016.2 0.6
23/08:09pm WNW 13 17 - - - - 10 Partly cloudy - 9.6 1016.2 0.6
23/08:00pm WNW 12 16 - - - - 7 Partly cloudy - 9.5 1016.2 0.6
23/07:57pm WNW 12 16 - - - - 9 Partly cloudy - 9.5 1016.2 0.6
23/07:30pm WNW 11 15 - - - - 4 Partly cloudy - 9.5 1016.3 0.6
23/07:09pm WNW 12 15 - - - - 5 Partly cloudy - 9.6 1016.4 0.6
23/07:00pm WNW 12 16 - - - - 7 Partly cloudy - 9.6 1016.4 0.6
23/06:31pm WNW 9 12 - - - - 10 Partly cloudy - 9.5 1016.3 0.6
23/06:30pm WNW 9 12 - - - - 10 Partly cloudy - 9.6 1016.3 0.6
23/06:00pm WNW 11 14 - - - - 10 - - 9.4 1016.3 0.6
23/05:30pm W 14 17 - - - - 8 Partly cloudy - 10.1 1016.3 0.6
23/05:00pm WNW 15 22 - - - - 10 Partly cloudy - 10.3 1016.6 0.6
23/04:51pm WNW 17 22 - - - - 9 Partly cloudy - 10.5 1016.5 0.6
23/04:33pm WNW 13 17 - - - - 8 Partly cloudy - 10.7 1016.6 0.6
23/04:31pm WNW 13 17 - - - - 8 Partly cloudy - 10.7 1016.6 0.6
23/04:30pm WNW 13 17 - - - - 9 Partly cloudy - 10.8 1016.6 0.6
23/04:17pm WNW 15 20 - - - - 3 Partly cloudy - 10.8 1016.6 0.6
23/04:12pm WNW 13 20 - - - - 5 Partly cloudy - 11.0 1016.7 0.4
23/04:00pm WNW 13 16 - - - - 10 Partly cloudy - 11.6 1016.7 0.4
23/03:30pm WNW 13 16 - - - - 10 Partly cloudy - 11.6 1016.9 0.4
23/03:00pm NW 14 19 - - - - 10 Mostly cloudy - 11.4 1017.3 0.4
23/02:30pm WNW 15 20 - - - - 10 Partly cloudy - 12.1 1017.4 0.4
23/02:09pm WNW 15 22 - - - - 10 Partly cloudy - 12.2 1017.5 0.4
23/02:00pm W 15 22 - - - - 10 Partly cloudy - 12.4 1017.3 0.4
23/01:36pm WNW 11 19 - - - - 10 Partly cloudy - 11.8 1017.5 0.4
23/01:30pm WNW 9 14 - - - - 8 Partly cloudy - 12.8 1017.7 0.4
23/01:02pm NW 13 17 - - - - 5 Partly cloudy - 11.6 1018.3 0.0
23/01:00pm NW 13 17 - - - - 7 Partly cloudy - 11.7 1018.4 0.0
23/12:47pm WNW 12 18 - - - - 6 Partly cloudy - 11.4 1018.6 0.0
23/12:30pm NW 13 17 - - - - 4 Partly cloudy - 11.3 1018.9 0.0
23/12:21pm NW 12 16 - - - - 5 Cloudy - 11.3 1019.1 0.0
23/12:13pm WNW 8 14 - - - - 10 Cloudy - 11.0 1019.2 0.0
23/12:00pm NW 9 12 - - - - 4 Cloudy - 10.7 1019.5 0.0
23/11:34am NW 10 14 - - - - 5 Partly cloudy - 10.5 1020.1 0.0
23/11:30am NW 11 15 - - - - 10 Partly cloudy - 11.0 1020.1 0.0
23/11:29am NW 11 15 - - - - 10 Partly cloudy - 11.1 1020.1 0.0
23/11:00am W 8 11 - - - - 10 Cloudy - 11.1 1020.5 0.0
23/10:30am WNW 8 11 - - - - 10 Partly cloudy - 10.7 1020.9 0.0
23/10:00am W 4 9 - - - - 10 Cloudy - 9.2 1021.2 0.0
23/09:30am SW 1 3 - - - - 10 Cloudy - 6.8 1021.5 0.0
23/09:00am SW 1 3 - - - - 10 Cloudy - 5.1 1021.9 0.0
23/08:30am W 3 4 - - - - 10 Cloudy - 3.9 1022.0 0.0
23/08:00am WSW 4 5 - - - - 10 Cloudy - 2.7 1022.1 0.0
23/07:30am W 4 6 - - - - 10 Cloudy - 1.1 1022.1 0.0
23/07:00am W 4 5 - - - - 10 Cloudy - 0.5 1022.1 0.0
23/06:30am SW 5 6 - - - - 10 Cloudy - -0.7 1021.9 0.0
23/06:00am WSW 5 6 - - - - 10 Mostly cloudy - -0.1 1022.0 0.0
23/05:30am NW 5 6 - - - - 10 Partly cloudy - 0.1 1022.1 0.0
23/05:00am W 4 5 - - - - 10 Partly cloudy - -0.8 1022.1 0.0
23/04:30am W 5 7 - - - - 10 Partly cloudy - -1.1 1022.3 0.0
23/04:00am WNW 5 7 - - - - 10 Partly cloudy - -0.4 1022.2 0.0
23/03:30am WNW 5 7 - - - - 10 - - -0.1 1022.3 0.0
23/03:00am WSW 4 7 - - - - 10 - - 0.0 1022.4 0.0
23/02:30am W 6 7 - - - - 10 - - 0.7 1022.6 0.0
23/02:00am W 8 9 - - - - 10 - - 1.2 1023.1 0.0
23/01:30am W 8 9 - - - - 10 - - 1.5 1023.0 0.0
23/01:00am W 9 10 - - - - 10 - - 1.7 1023.3 0.0
23/12:30am W 9 10 - - - - 10 - - 1.9 1023.1 0.0
23/12:00am W 9 10 - - - - 10 - - 1.9 1023.4 0.0
 
Date/Time
EST
Wind Sea
Height
m
Swell Vis
km
Cloud Weather Temp
°C
Press
hPa
Rain since
9am
mm
Dir  Spd
kts
Gust
kts
Height
m
Period
s
Dir
22/11:30pm W 9 9 - - - - 10 - - 1.5 1023.5 0.0
22/11:00pm W 7 8 - - - - 9 - - 0.7 1023.5 0.0
22/10:30pm WSW 4 5 - - - - 10 - - 1.1 1023.6 0.0
22/10:00pm NW 3 3 - - - - 10 - - 3.4 1023.6 0.0
22/09:30pm NW 5 6 - - - - 10 - - 3.4 1023.6 0.0
22/09:00pm W 4 5 - - - - 10 - - 2.6 1023.7 0.0
22/08:30pm SW 5 6 - - - - 10 - - 3.0 1023.6 0.0
22/08:00pm SSW 2 4 - - - - 10 - - 4.4 1023.3 0.0
22/07:30pm WSW 5 6 - - - - 10 - - 4.0 1023.0 0.0
22/07:00pm SW 4 6 - - - - 10 - - 5.3 1023.0 0.0
22/06:30pm WNW 5 7 - - - - 10 - - 6.1 1022.7 0.0
22/06:00pm WNW 6 8 - - - - 10 - - 7.4 1022.4 0.0
22/05:30pm WNW 6 8 - - - - 10 - - 9.1 1021.9 0.0
22/05:00pm SW 8 11 - - - - 10 - - 9.9 1021.3 0.0
22/04:30pm SW 15 21 - - - - 10 - - 10.4 1020.8 0.0
22/04:14pm WSW 15 25 - - - - 10 - - 10.7 1020.9 0.0
22/04:00pm SW 13 20 - - - - 10 - - 11.1 1020.9 0.0
22/03:30pm SW 12 16 - - - - 10 - - 11.6 1020.6 0.0
22/03:25pm WSW 15 25 - - - - 10 - - 11.4 1020.5 0.0
22/03:00pm SW 11 21 - - - - 10 Mostly clear - 11.7 1020.3 0.0
22/02:30pm SW 13 19 - - - - 10 Partly cloudy - 12.0 1019.8 0.0
22/02:00pm SW 17 25 - - - - 10 Partly cloudy - 12.0 1020.0 0.0
22/01:53pm SW 15 25 - - - - 10 Partly cloudy - 11.9 1020.0 0.0
22/01:30pm SSW 13 18 - - - - 10 Partly cloudy - 11.6 1019.8 0.0
22/01:05pm SW 17 28 - - - - 10 Partly cloudy - 11.2 1019.7 0.0
22/01:00pm SW 16 23 - - - - 10 Partly cloudy - 11.7 1019.7 0.0
22/12:53pm SW 15 22 - - - - 10 Partly cloudy - 11.3 1019.7 0.0
22/12:30pm SSW 10 18 - - - - 10 Partly cloudy - 10.8 1019.6 0.0
22/12:00pm SW 15 21 - - - - 10 Mostly clear - 11.2 1019.5 0.0
22/11:30am WSW 11 15 - - - - 10 Partly cloudy - 10.5 1019.4 0.0
22/11:08am SW 15 27 - - - - 10 Partly cloudy - 10.4 1019.5 0.0
22/11:00am WSW 12 17 - - - - 10 Partly cloudy - 10.6 1019.4 0.0
22/10:30am SW 15 26 - - - - 10 Partly cloudy - 9.2 1018.9 0.0
22/10:24am SW 12 26 - - - - 10 Partly cloudy - 9.7 1019.0 0.0
22/10:00am SSW 6 17 - - - - 10 Partly cloudy - 8.6 1018.6 0.0
22/09:30am WSW 12 17 - - - - 10 Partly cloudy - 8.1 1018.0 0.0
22/09:00am WSW 8 11 - - - - 10 Cloudy - 8.3 1017.5 9.8
22/08:30am S 5 9 - - - - 10 Partly cloudy - 7.6 1016.7 9.8
22/08:00am SW 14 23 - - - - 10 - - 7.3 1015.9 9.8
22/07:30am SSW 17 29 - - - - 10 - - 7.1 1014.7 9.8
22/07:00am SSW 17 28 - - - - 10 - - 7.1 1013.9 9.8
22/06:48am SW 15 26 - - - - 10 - - 6.5 1013.7 9.8
22/06:30am SW 15 23 - - - - 10 - - 6.5 1013.5 9.8
22/06:11am SW 19 37 - - - - 10 - - 6.8 1013.3 9.8
22/06:00am SW 17 23 - - - - 10 - - 6.4 1012.7 9.8
22/05:49am WSW 17 27 - - - - 10 - - 6.4 1012.6 9.8
22/05:30am WSW 15 24 - - - - 10 - - 6.2 1012.5 9.8
22/05:00am WSW 16 21 - - - - 10 - - 6.1 1012.5 9.8
22/04:30am SW 9 12 - - - - 10 - - 5.3 1012.2 9.8
22/04:00am WSW 14 19 - - - - 10 Partly cloudy - 5.8 1011.8 9.8
22/03:30am SW 19 32 - - - - 8 Partly cloudy - 6.1 1011.5 9.8
22/03:21am SW 15 30 - - - - 10 Partly cloudy - 6.8 1011.3 9.6
22/03:00am WSW 12 19 - - - - 10 Mostly clear - 6.4 1010.6 9.6
22/02:30am WSW 16 22 - - - - 10 Partly cloudy - 6.2 1010.0 9.6
22/02:00am WSW 20 30 - - - - 10 Partly cloudy - 6.2 1009.1 9.6
22/01:38am SW 20 33 - - - - 10 Partly cloudy - 6.8 1009.0 9.0
22/01:30am WSW 16 24 - - - - 10 Partly cloudy - 6.6 1008.4 8.8
22/01:00am WSW 18 27 - - - - 9 Partly cloudy - 6.2 1007.5 8.8
22/12:32am WSW 20 37 - - - - 10 Partly cloudy - 7.0 1007.3 8.8
22/12:30am WSW 20 29 - - - - 10 Partly cloudy - 7.1 1007.3 8.6
22/12:00am WSW 21 30 - - - - 10 Cloudy Recent precip. 7.1 1006.7 8.6
 
Date/Time
EST
Wind Sea
Height
m
Swell Vis
km
Cloud Weather Temp
°C
Press
hPa
Rain since
9am
mm
Dir  Spd
kts
Gust
kts
Height
m
Period
s
Dir
21/11:55pm WSW 20 33 - - - - 10 Partly cloudy - 6.8 1006.8 8.6
21/11:38pm WSW 24 37 - - - - 5 Partly cloudy - 7.3 1006.9 8.6
21/11:30pm WSW 24 34 - - - - 10 Partly cloudy - 8.3 1006.2 8.4
21/11:04pm WSW 21 36 - - - - 10 Partly cloudy - 8.5 1005.7 8.4
21/11:00pm WSW 21 30 - - - - 10 Partly cloudy - 8.6 1005.8 8.4
21/10:33pm WSW 18 32 - - - - 10 Partly cloudy - 8.4 1004.9 8.4
21/10:30pm WSW 20 32 - - - - 10 Partly cloudy - 8.5 1005.1 8.4
21/10:15pm WSW 21 32 - - - - 5 Partly cloudy - 9.0 1004.8 8.0
21/10:09pm W 19 30 - - - - 10 Partly cloudy - 9.2 1004.6 7.8
21/10:00pm W 18 25 - - - - 8 Partly cloudy - 9.0 1004.5 7.8
21/09:30pm W 15 26 - - - - 10 Partly cloudy - 9.2 1004.6 7.6
21/09:00pm W 11 19 - - - - 10 Cloudy Recent precip. 8.6 1004.9 7.6
21/08:30pm W 11 17 - - - - 10 Partly cloudy - 8.0 1005.2 7.6
21/08:00pm W 11 15 - - - - 10 Partly cloudy - 7.7 1006.2 7.2
21/07:30pm W 13 17 - - - - 10 Partly cloudy - 7.7 1006.7 7.2
21/07:15pm W 13 17 - - - - 9 Partly cloudy - 7.6 1007.2 7.0
21/07:00pm W 13 18 - - - - 5 Partly cloudy - 7.5 1007.6 6.8
21/06:58pm W 13 18 - - - - 5 Partly cloudy - 7.6 1007.7 6.4
21/06:43pm W 14 19 - - - - 7 Partly cloudy - 7.6 1007.7 6.2
21/06:30pm W 13 19 - - - - 5 Partly cloudy - 7.7 1008.0 5.6
21/06:00pm W 14 24 - - - - 4 Cloudy Rain 7.3 1008.2 4.8
21/05:41pm W 10 13 - - - - 5 Partly cloudy - 7.2 1008.5 3.8
21/05:32pm W 10 13 - - - - 10 Partly cloudy - 7.2 1008.6 3.2
21/05:30pm W 10 13 - - - - 10 Partly cloudy - 7.1 1008.5 3.2
21/05:00pm W 17 24 - - - - 5 Partly cloudy - 7.3 1009.3 2.4
21/04:45pm W 25 32 - - - - 5 Partly cloudy - 7.8 1009.3 2.0
21/04:30pm W 19 30 - - - - 10 Partly cloudy - 9.7 1008.8 1.6
21/04:00pm W 17 28 - - - - 9 Partly cloudy - 9.6 1008.8 1.6
21/03:51pm W 18 28 - - - - 8 Partly cloudy - 9.5 1009.0 1.6
21/03:30pm W 16 24 - - - - 10 Partly cloudy - 9.5 1008.7 1.4
21/03:21pm W 13 17 - - - - 10 Partly cloudy - 8.9 1008.9 1.4

Other formats

Comma delimited format used in spreadsheet applications
http://www.bom.gov.au/fwo/IDV60701/IDV60701.95957.axf

JavaScript Object Notation format (JSON) in row-major order
http://www.bom.gov.au/fwo/IDV60701/IDV60701.95957.json

Data quality

Most of these data are generated automatically and are frequently updated. Quality checks on data are not normally performed. It is possible for incorrect values to appear. Refer to information at About Latest Weather Observations and please check the disclaimer before using these data.